Enter the Airport ICAO Code

Search by Airport or City

Current Weather

MMMY | General Mariano Escobedo International Airport

Monterrey, Nuevo León, Mexico

Last Update 41 Minutes Ago

Clear Sky

Temperature of 24 ºC

Light to Moderate Winds from North

Temperature

24 ºC

Dew Point Temperature

04 ºC

Relative Humidity

27.44 %

Wind Direction

North (360º, Without Significant Variations)

Wind Velocity

11 km/h (06 kt)

Gusts

None

Visibility

Greater than 10 Miles

Sea Level Pressure

29.97 inHg (Inches of Mercury)

Layers of Clouds

None

METAR MMMY 022045Z 36006KT 10SM SKC 24/04 A2997 RMK SLP/// 5//// 9//

Weather Forecast

MMMY | General Mariano Escobedo International Airport

Monterrey, Nuevo León, Mexico

Forecast valid for the next 27 Hours

From now on it is expected:

Clear Sky

Moderate Winds from West

In 3 to 4 hours it is expected the begining of:

Calm Wind

In 19 hours it is expected the begining of:

Moderate Winds from North

Maximum Temperature

27 ºC in 0 Hours

Minimum Temperature

04 ºC in 15 Hours

TAF MMMY 021709Z 0218/0324 29015KT P6SM SKC TX27/0221Z TN04/0312Z BECMG 0300/0301 00000KT FM031600 34015KT P6SM SKC